sensor_id;sensor_type;location;lat;lon;timestamp;pressure;altitude;pressure_sealevel;temperature;humidity
75086;BME280;63663;0.000;0.000;2022-12-18T00:01:17;102160.56;;;7.29;33.00
75086;BME280;63663;0.000;0.000;2022-12-18T00:03:43;102156.81;;;7.30;33.13
75086;BME280;63663;0.000;0.000;2022-12-18T00:06:08;102159.75;;;7.28;33.18
75086;BME280;63663;0.000;0.000;2022-12-18T00:08:34;102161.03;;;7.26;33.00
75086;BME280;63663;0.000;0.000;2022-12-18T00:11:11;102167.03;;;7.28;33.10
75086;BME280;63663;0.000;0.000;2022-12-18T00:13:36;102166.81;;;7.30;33.06
75086;BME280;63663;0.000;0.000;2022-12-18T00:16:08;102158.06;;;7.27;32.92
75086;BME280;63663;0.000;0.000;2022-12-18T00:18:34;102155.38;;;7.27;32.89
75086;BME280;63663;0.000;0.000;2022-12-18T00:21:00;102144.53;;;7.27;32.96
75086;BME280;63663;0.000;0.000;2022-12-18T00:23:25;102141.63;;;7.29;33.06
75086;BME280;63663;0.000;0.000;2022-12-18T00:25:51;102145.16;;;7.30;32.84
75086;BME280;63663;0.000;0.000;2022-12-18T00:28:16;102153.72;;;7.26;32.79
75086;BME280;63663;0.000;0.000;2022-12-18T00:30:41;102149.34;;;7.25;33.07
75086;BME280;63663;0.000;0.000;2022-12-18T00:33:06;102159.34;;;7.25;33.11
75086;BME280;63663;0.000;0.000;2022-12-18T00:35:31;102169.16;;;7.26;32.98
75086;BME280;63663;0.000;0.000;2022-12-18T00:37:56;102180.81;;;7.26;32.84
75086;BME280;63663;0.000;0.000;2022-12-18T00:40:22;102172.44;;;7.28;32.82
75086;BME280;63663;0.000;0.000;2022-12-18T00:42:47;102164.56;;;7.26;32.70
75086;BME280;63663;0.000;0.000;2022-12-18T00:45:12;102159.16;;;7.26;32.61
75086;BME280;63663;0.000;0.000;2022-12-18T00:47:37;102155.59;;;7.26;32.75
75086;BME280;63663;0.000;0.000;2022-12-18T00:50:03;102159.94;;;7.27;32.89
75086;BME280;63663;0.000;0.000;2022-12-18T00:52:28;102155.59;;;7.26;32.63
75086;BME280;63663;0.000;0.000;2022-12-18T00:54:53;102162.44;;;7.28;32.69
75086;BME280;63663;0.000;0.000;2022-12-18T00:57:18;102161.63;;;7.28;32.97
75086;BME280;63663;0.000;0.000;2022-12-18T00:59:43;102163.06;;;7.31;32.52
75086;BME280;63663;0.000;0.000;2022-12-18T01:02:09;102149.50;;;7.44;32.31
75086;BME280;63663;0.000;0.000;2022-12-18T01:04:34;102146.34;;;7.53;32.35
75086;BME280;63663;0.000;0.000;2022-12-18T01:06:59;102139.63;;;7.62;32.01
75086;BME280;63663;0.000;0.000;2022-12-18T01:09:25;102143.84;;;7.58;32.30
75086;BME280;63663;0.000;0.000;2022-12-18T01:11:50;102156.81;;;7.30;32.51
75086;BME280;63663;0.000;0.000;2022-12-18T01:14:15;102156.47;;;7.13;32.85
75086;BME280;63663;0.000;0.000;2022-12-18T01:16:40;102157.72;;;6.98;33.05
75086;BME280;63663;0.000;0.000;2022-12-18T01:19:05;102156.25;;;6.82;33.35
75086;BME280;63663;0.000;0.000;2022-12-18T01:21:31;102149.41;;;6.66;33.69
75086;BME280;63663;0.000;0.000;2022-12-18T01:23:56;102147.75;;;6.45;33.79
75086;BME280;63663;0.000;0.000;2022-12-18T01:26:21;102149.16;;;6.28;34.15
75086;BME280;63663;0.000;0.000;2022-12-18T01:28:47;102146.44;;;6.15;34.60
75086;BME280;63663;0.000;0.000;2022-12-18T01:31:16;102144.53;;;6.02;34.65
75086;BME280;63663;0.000;0.000;2022-12-18T01:33:42;102144.25;;;5.84;35.13
75086;BME280;63663;0.000;0.000;2022-12-18T01:36:08;102139.44;;;5.79;34.93
75086;BME280;63663;0.000;0.000;2022-12-18T01:38:33;102146.19;;;5.56;35.34
75086;BME280;63663;0.000;0.000;2022-12-18T01:40:59;102157.16;;;5.47;35.38
75086;BME280;63663;0.000;0.000;2022-12-18T01:46:08;102164.91;;;5.23;36.10
75086;BME280;63663;0.000;0.000;2022-12-18T01:48:33;102155.66;;;5.04;36.96
75086;BME280;63663;0.000;0.000;2022-12-18T01:50:59;102150.81;;;4.93;36.73
75086;BME280;63663;0.000;0.000;2022-12-18T01:53:24;102161.13;;;4.83;37.17
75086;BME280;63663;0.000;0.000;2022-12-18T01:55:51;102156.69;;;4.75;37.57
75086;BME280;63663;0.000;0.000;2022-12-18T01:58:17;102155.16;;;4.66;37.11
75086;BME280;63663;0.000;0.000;2022-12-18T02:00:43;102156.16;;;4.58;37.47
75086;BME280;63663;0.000;0.000;2022-12-18T02:03:08;102152.31;;;4.46;37.70
75086;BME280;63663;0.000;0.000;2022-12-18T02:05:40;102157.63;;;4.40;37.89
75086;BME280;63663;0.000;0.000;2022-12-18T02:08:16;102147.44;;;4.35;37.80
75086;BME280;63663;0.000;0.000;2022-12-18T02:11:00;102150.44;;;4.25;37.99
75086;BME280;63663;0.000;0.000;2022-12-18T02:18:41;102154.78;;;4.05;38.34
75086;BME280;63663;0.000;0.000;2022-12-18T02:28:41;102160.63;;;3.73;39.14
75086;BME280;63663;0.000;0.000;2022-12-18T02:31:08;102154.78;;;3.69;39.24
75086;BME280;63663;0.000;0.000;2022-12-18T02:33:35;102146.81;;;3.61;40.02
75086;BME280;63663;0.000;0.000;2022-12-18T02:36:01;102150.06;;;3.56;40.40
75086;BME280;63663;0.000;0.000;2022-12-18T02:38:27;102141.53;;;3.53;40.51
75086;BME280;63663;0.000;0.000;2022-12-18T02:40:54;102135.03;;;3.47;39.90
75086;BME280;63663;0.000;0.000;2022-12-18T02:43:19;102133.34;;;3.46;40.69
75086;BME280;63663;0.000;0.000;2022-12-18T02:45:49;102134.13;;;3.40;40.22
75086;BME280;63663;0.000;0.000;2022-12-18T02:48:15;102143.97;;;3.33;39.99
75086;BME280;63663;0.000;0.000;2022-12-18T02:50:45;102138.78;;;3.32;40.58
75086;BME280;63663;0.000;0.000;2022-12-18T03:00:58;102142.28;;;3.17;40.73
75086;BME280;63663;0.000;0.000;2022-12-18T03:03:26;102158.78;;;3.14;41.44
75086;BME280;63663;0.000;0.000;2022-12-18T03:05:55;102155.66;;;3.11;41.53
75086;BME280;63663;0.000;0.000;2022-12-18T03:08:23;102156.03;;;3.08;41.63
75086;BME280;63663;0.000;0.000;2022-12-18T03:10:54;102166.31;;;3.04;40.90
75086;BME280;63663;0.000;0.000;2022-12-18T03:13:26;102169.00;;;3.04;40.75
75086;BME280;63663;0.000;0.000;2022-12-18T03:15:53;102172.78;;;2.95;41.73
75086;BME280;63663;0.000;0.000;2022-12-18T03:18:21;102161.38;;;2.93;41.45
75086;BME280;63663;0.000;0.000;2022-12-18T03:20:48;102166.94;;;2.91;41.86
75086;BME280;63663;0.000;0.000;2022-12-18T03:23:15;102159.03;;;2.90;41.83
75086;BME280;63663;0.000;0.000;2022-12-18T03:25:43;102151.06;;;2.82;41.98
75086;BME280;63663;0.000;0.000;2022-12-18T03:28:12;102154.78;;;2.81;42.15
75086;BME280;63663;0.000;0.000;2022-12-18T03:30:40;102148.28;;;2.75;42.02
75086;BME280;63663;0.000;0.000;2022-12-18T03:35:39;102139.75;;;2.72;41.59
75086;BME280;63663;0.000;0.000;2022-12-18T03:38:05;102139.25;;;2.68;41.63
75086;BME280;63663;0.000;0.000;2022-12-18T03:40:35;102148.34;;;2.67;42.23
75086;BME280;63663;0.000;0.000;2022-12-18T03:43:12;102143.34;;;2.64;42.17
75086;BME280;63663;0.000;0.000;2022-12-18T03:45:42;102143.69;;;2.61;41.90
75086;BME280;63663;0.000;0.000;2022-12-18T03:50:57;102147.94;;;2.55;42.78
75086;BME280;63663;0.000;0.000;2022-12-18T03:56:05;102150.69;;;2.47;42.61
75086;BME280;63663;0.000;0.000;2022-12-18T03:58:31;102154.59;;;2.45;42.43
75086;BME280;63663;0.000;0.000;2022-12-18T04:00:58;102154.47;;;2.38;42.34
75086;BME280;63663;0.000;0.000;2022-12-18T04:03:26;102155.50;;;2.37;43.04
75086;BME280;63663;0.000;0.000;2022-12-18T04:05:54;102156.84;;;2.33;42.50
75086;BME280;63663;0.000;0.000;2022-12-18T04:08:20;102150.19;;;2.29;42.58
75086;BME280;63663;0.000;0.000;2022-12-18T04:10:46;102155.25;;;2.24;42.75
75086;BME280;63663;0.000;0.000;2022-12-18T04:13:11;102150.88;;;2.23;43.00
75086;BME280;63663;0.000;0.000;2022-12-18T04:15:36;102151.25;;;2.20;43.10
75086;BME280;63663;0.000;0.000;2022-12-18T04:18:02;102156.59;;;2.20;43.69
75086;BME280;63663;0.000;0.000;2022-12-18T04:20:28;102155.97;;;2.18;43.25
75086;BME280;63663;0.000;0.000;2022-12-18T04:22:53;102153.31;;;2.10;42.94
75086;BME280;63663;0.000;0.000;2022-12-18T04:25:18;102162.59;;;2.07;43.09
75086;BME280;63663;0.000;0.000;2022-12-18T04:27:43;102156.38;;;2.07;43.61
75086;BME280;63663;0.000;0.000;2022-12-18T04:30:08;102151.19;;;2.05;43.34
75086;BME280;63663;0.000;0.000;2022-12-18T04:32:34;102151.53;;;2.02;43.41
75086;BME280;63663;0.000;0.000;2022-12-18T04:34:59;102159.28;;;1.97;43.27
75086;BME280;63663;0.000;0.000;2022-12-18T04:37:24;102160.28;;;1.96;43.35
75086;BME280;63663;0.000;0.000;2022-12-18T04:39:50;102164.34;;;1.92;43.41
75086;BME280;63663;0.000;0.000;2022-12-18T04:42:15;102160.13;;;1.98;43.30
75086;BME280;63663;0.000;0.000;2022-12-18T04:44:40;102164.19;;;1.94;44.16
75086;BME280;63663;0.000;0.000;2022-12-18T04:47:05;102164.53;;;1.91;43.97
75086;BME280;63663;0.000;0.000;2022-12-18T04:49:30;102158.00;;;1.85;44.06
75086;BME280;63663;0.000;0.000;2022-12-18T04:51:55;102161.53;;;1.86;43.56
75086;BME280;63663;0.000;0.000;2022-12-18T04:54:21;102157.19;;;1.85;44.49
75086;BME280;63663;0.000;0.000;2022-12-18T04:56:46;102163.19;;;1.87;43.75
75086;BME280;63663;0.000;0.000;2022-12-18T04:59:11;102167.09;;;1.84;43.72
75086;BME280;63663;0.000;0.000;2022-12-18T05:01:36;102166.25;;;1.84;44.67
75086;BME280;63663;0.000;0.000;2022-12-18T05:04:02;102156.88;;;1.79;44.70
75086;BME280;63663;0.000;0.000;2022-12-18T05:06:27;102152.16;;;1.81;44.46
75086;BME280;63663;0.000;0.000;2022-12-18T05:08:52;102157.22;;;1.76;44.64
75086;BME280;63663;0.000;0.000;2022-12-18T05:11:18;102161.75;;;1.76;44.43
75086;BME280;63663;0.000;0.000;2022-12-18T05:13:43;102168.97;;;1.75;44.04
75086;BME280;63663;0.000;0.000;2022-12-18T05:16:09;102161.09;;;1.74;44.64
75086;BME280;63663;0.000;0.000;2022-12-18T05:18:34;102142.88;;;1.61;44.12
75086;BME280;63663;0.000;0.000;2022-12-18T05:20:59;102156.44;;;1.68;44.30
75086;BME280;63663;0.000;0.000;2022-12-18T05:23:25;102152.91;;;1.67;44.63
75086;BME280;63663;0.000;0.000;2022-12-18T05:26:00;102149.38;;;1.67;44.59
75086;BME280;63663;0.000;0.000;2022-12-18T05:28:26;102149.56;;;1.65;44.67
75086;BME280;63663;0.000;0.000;2022-12-18T05:30:52;102144.84;;;1.67;44.12
75086;BME280;63663;0.000;0.000;2022-12-18T05:33:17;102143.34;;;1.65;44.23
75086;BME280;63663;0.000;0.000;2022-12-18T05:35:43;102149.25;;;1.60;44.21
75086;BME280;63663;0.000;0.000;2022-12-18T05:38:08;102154.31;;;1.55;44.21
75086;BME280;63663;0.000;0.000;2022-12-18T05:40:34;102155.31;;;1.54;44.83
75086;BME280;63663;0.000;0.000;2022-12-18T05:42:59;102157.66;;;1.57;44.14
75086;BME280;63663;0.000;0.000;2022-12-18T05:45:24;102151.47;;;1.57;44.89
75086;BME280;63663;0.000;0.000;2022-12-18T05:47:49;102150.63;;;1.56;44.88
75086;BME280;63663;0.000;0.000;2022-12-18T05:50:14;102141.41;;;1.51;44.55
75086;BME280;63663;0.000;0.000;2022-12-18T05:52:39;102145.59;;;1.53;45.10
75086;BME280;63663;0.000;0.000;2022-12-18T05:55:05;102147.59;;;1.51;44.60
75086;BME280;63663;0.000;0.000;2022-12-18T05:57:30;102147.13;;;1.48;44.41
75086;BME280;63663;0.000;0.000;2022-12-18T05:59:55;102136.56;;;1.46;45.32
75086;BME280;63663;0.000;0.000;2022-12-18T06:02:20;102135.41;;;1.40;44.89
75086;BME280;63663;0.000;0.000;2022-12-18T06:04:45;102153.97;;;1.50;44.91
75086;BME280;63663;0.000;0.000;2022-12-18T06:07:11;102149.81;;;1.48;44.90
75086;BME280;63663;0.000;0.000;2022-12-18T06:09:36;102151.00;;;1.45;44.87
75086;BME280;63663;0.000;0.000;2022-12-18T06:12:01;102158.22;;;1.44;45.33
75086;BME280;63663;0.000;0.000;2022-12-18T06:14:26;102154.03;;;1.42;45.33
75086;BME280;63663;0.000;0.000;2022-12-18T06:16:52;102165.75;;;1.41;45.44
75086;BME280;63663;0.000;0.000;2022-12-18T06:19:17;102161.59;;;1.38;45.51
75086;BME280;63663;0.000;0.000;2022-12-18T06:21:42;102165.94;;;1.39;45.55
75086;BME280;63663;0.000;0.000;2022-12-18T06:24:07;102156.25;;;1.38;44.96
75086;BME280;63663;0.000;0.000;2022-12-18T06:26:33;102168.97;;;1.36;45.00
75086;BME280;63663;0.000;0.000;2022-12-18T06:28:58;102159.94;;;1.37;44.73
75086;BME280;63663;0.000;0.000;2022-12-18T06:31:23;102173.97;;;1.39;45.69
75086;BME280;63663;0.000;0.000;2022-12-18T06:33:49;102174.19;;;1.38;45.72
75086;BME280;63663;0.000;0.000;2022-12-18T06:36:14;102177.19;;;1.35;45.76
75086;BME280;63663;0.000;0.000;2022-12-18T06:38:41;102180.88;;;1.34;45.48
75086;BME280;63663;0.000;0.000;2022-12-18T06:41:10;102181.72;;;1.34;45.68
75086;BME280;63663;0.000;0.000;2022-12-18T06:43:35;102189.94;;;1.33;45.86
75086;BME280;63663;0.000;0.000;2022-12-18T06:46:01;102196.31;;;1.32;45.10
75086;BME280;63663;0.000;0.000;2022-12-18T06:48:26;102186.41;;;1.32;45.58
75086;BME280;63663;0.000;0.000;2022-12-18T06:50:51;102187.25;;;1.33;45.55
75086;BME280;63663;0.000;0.000;2022-12-18T06:53:17;102191.97;;;1.31;45.72
75086;BME280;63663;0.000;0.000;2022-12-18T06:55:42;102186.59;;;1.31;45.71
75086;BME280;63663;0.000;0.000;2022-12-18T06:58:07;102193.13;;;1.36;45.58
75086;BME280;63663;0.000;0.000;2022-12-18T07:00:32;102185.75;;;1.30;45.76
75086;BME280;63663;0.000;0.000;2022-12-18T07:02:58;102184.25;;;1.28;45.72
75086;BME280;63663;0.000;0.000;2022-12-18T07:05:23;102179.72;;;1.28;45.76
75086;BME280;63663;0.000;0.000;2022-12-18T07:07:48;102187.97;;;1.27;46.03
75086;BME280;63663;0.000;0.000;2022-12-18T07:10:13;102197.50;;;1.29;45.84
75086;BME280;63663;0.000;0.000;2022-12-18T07:12:38;102200.34;;;1.28;45.51
75086;BME280;63663;0.000;0.000;2022-12-18T07:15:04;102207.06;;;1.24;45.79
75086;BME280;63663;0.000;0.000;2022-12-18T07:17:29;102211.09;;;1.20;46.27
75086;BME280;63663;0.000;0.000;2022-12-18T07:19:54;102213.09;;;1.26;45.52
75086;BME280;63663;0.000;0.000;2022-12-18T07:22:20;102207.06;;;1.24;46.09
75086;BME280;63663;0.000;0.000;2022-12-18T07:24:45;102215.13;;;1.24;45.69
75086;BME280;63663;0.000;0.000;2022-12-18T07:27:10;102215.97;;;1.24;46.01
75086;BME280;63663;0.000;0.000;2022-12-18T07:29:35;102220.63;;;1.30;45.94
75086;BME280;63663;0.000;0.000;2022-12-18T07:32:00;102212.75;;;1.29;45.63
75086;BME280;63663;0.000;0.000;2022-12-18T07:34:26;102200.69;;;1.25;46.07
75086;BME280;63663;0.000;0.000;2022-12-18T07:36:51;102191.28;;;1.29;45.94
75086;BME280;63663;0.000;0.000;2022-12-18T07:39:16;102182.25;;;1.22;46.44
75086;BME280;63663;0.000;0.000;2022-12-18T07:41:41;102191.16;;;1.22;46.18
75086;BME280;63663;0.000;0.000;2022-12-18T07:44:08;102182.09;;;1.23;46.44
75086;BME280;63663;0.000;0.000;2022-12-18T07:46:33;102187.13;;;1.26;45.76
75086;BME280;63663;0.000;0.000;2022-12-18T07:48:58;102194.50;;;1.24;46.48
75086;BME280;63663;0.000;0.000;2022-12-18T07:51:24;102192.81;;;1.23;45.93
75086;BME280;63663;0.000;0.000;2022-12-18T07:53:49;102184.09;;;1.21;45.62
75086;BME280;63663;0.000;0.000;2022-12-18T07:56:14;102187.63;;;1.22;45.94
75086;BME280;63663;0.000;0.000;2022-12-18T07:58:39;102179.56;;;1.22;46.42
75086;BME280;63663;0.000;0.000;2022-12-18T08:01:05;102190.81;;;1.25;45.69
75086;BME280;63663;0.000;0.000;2022-12-18T08:03:30;102192.00;;;1.23;45.91
75086;BME280;63663;0.000;0.000;2022-12-18T08:06:02;102196.00;;;1.19;46.08
75086;BME280;63663;0.000;0.000;2022-12-18T08:08:28;102194.34;;;1.18;46.66
75086;BME280;63663;0.000;0.000;2022-12-18T08:10:53;102201.03;;;1.22;46.48
75086;BME280;63663;0.000;0.000;2022-12-18T08:13:19;102201.19;;;1.20;46.72
75086;BME280;63663;0.000;0.000;2022-12-18T08:15:44;102203.22;;;1.18;46.99
75086;BME280;63663;0.000;0.000;2022-12-18T08:18:09;102195.34;;;1.17;46.64
75086;BME280;63663;0.000;0.000;2022-12-18T08:20:34;102195.16;;;1.18;46.26
75086;BME280;63663;0.000;0.000;2022-12-18T08:22:59;102179.25;;;1.17;46.85
75086;BME280;63663;0.000;0.000;2022-12-18T08:25:25;102177.41;;;1.17;46.82
75086;BME280;63663;0.000;0.000;2022-12-18T08:27:50;102172.88;;;1.18;46.80
75086;BME280;63663;0.000;0.000;2022-12-18T08:30:15;102158.78;;;1.16;46.42
75086;BME280;63663;0.000;0.000;2022-12-18T08:32:40;102146.44;;;1.06;46.92
75086;BME280;63663;0.000;0.000;2022-12-18T08:35:05;102156.78;;;1.18;46.49
75086;BME280;63663;0.000;0.000;2022-12-18T08:37:31;102129.88;;;1.03;46.57
75086;BME280;63663;0.000;0.000;2022-12-18T08:39:56;102151.41;;;1.18;47.24
75086;BME280;63663;0.000;0.000;2022-12-18T08:42:21;102155.47;;;1.14;46.83
75086;BME280;63663;0.000;0.000;2022-12-18T08:44:46;102155.47;;;1.14;47.36
75086;BME280;63663;0.000;0.000;2022-12-18T08:47:12;102160.66;;;1.15;47.43
75086;BME280;63663;0.000;0.000;2022-12-18T08:49:37;102152.78;;;1.14;47.46
75086;BME280;63663;0.000;0.000;2022-12-18T08:52:02;102160.50;;;1.08;47.81
75086;BME280;63663;0.000;0.000;2022-12-18T08:54:28;102165.53;;;1.12;47.91
75086;BME280;63663;0.000;0.000;2022-12-18T08:56:53;102164.84;;;1.09;47.16
75086;BME280;63663;0.000;0.000;2022-12-18T08:59:19;102154.81;;;1.12;47.83
75086;BME280;63663;0.000;0.000;2022-12-18T09:01:44;102151.13;;;1.13;47.94
75086;BME280;63663;0.000;0.000;2022-12-18T09:04:10;102151.44;;;1.09;47.85
75086;BME280;63663;0.000;0.000;2022-12-18T09:06:35;102147.25;;;1.07;48.07
75086;BME280;63663;0.000;0.000;2022-12-18T09:09:01;102152.78;;;1.14;48.09
75086;BME280;63663;0.000;0.000;2022-12-18T09:11:27;102148.94;;;1.08;48.33
75086;BME280;63663;0.000;0.000;2022-12-18T09:13:52;102151.94;;;1.05;48.50
75086;BME280;63663;0.000;0.000;2022-12-18T09:16:18;102153.63;;;1.06;48.30
75086;BME280;63663;0.000;0.000;2022-12-18T09:18:43;102160.84;;;1.05;48.25
75086;BME280;63663;0.000;0.000;2022-12-18T09:21:09;102161.84;;;1.04;48.09
75086;BME280;63663;0.000;0.000;2022-12-18T09:23:35;102150.09;;;1.05;48.42
75086;BME280;63663;0.000;0.000;2022-12-18T09:26:00;102147.25;;;1.07;48.63
75086;BME280;63663;0.000;0.000;2022-12-18T09:28:26;102155.63;;;1.04;48.99
75086;BME280;63663;0.000;0.000;2022-12-18T09:30:51;102149.81;;;1.00;48.88
75086;BME280;63663;0.000;0.000;2022-12-18T09:33:16;102148.81;;;1.01;48.43
75086;BME280;63663;0.000;0.000;2022-12-18T09:35:42;102167.19;;;1.04;49.14
75086;BME280;63663;0.000;0.000;2022-12-18T09:38:08;102156.69;;;1.03;48.97
75086;BME280;63663;0.000;0.000;2022-12-18T09:40:36;102147.78;;;1.02;48.46
75086;BME280;63663;0.000;0.000;2022-12-18T09:43:04;102149.63;;;1.02;48.68
75086;BME280;63663;0.000;0.000;2022-12-18T09:45:33;102150.13;;;0.97;48.52
75086;BME280;63663;0.000;0.000;2022-12-18T09:48:03;102157.84;;;1.00;49.55
75086;BME280;63663;0.000;0.000;2022-12-18T09:52:54;102159.34;;;1.03;48.72
75086;BME280;63663;0.000;0.000;2022-12-18T09:55:31;102165.34;;;1.05;49.59
75086;BME280;63663;0.000;0.000;2022-12-18T09:58:00;102168.41;;;1.02;49.40
75086;BME280;63663;0.000;0.000;2022-12-18T10:00:29;102154.47;;;1.06;49.63
75086;BME280;63663;0.000;0.000;2022-12-18T10:03:01;102154.00;;;1.03;49.59
75086;BME280;63663;0.000;0.000;2022-12-18T10:05:34;102148.97;;;1.00;49.09
75086;BME280;63663;0.000;0.000;2022-12-18T10:08:05;102146.28;;;1.00;49.99
75086;BME280;63663;0.000;0.000;2022-12-18T10:10:41;102152.16;;;1.03;49.88
75086;BME280;63663;0.000;0.000;2022-12-18T10:18:04;102161.53;;;0.99;50.51
75086;BME280;63663;0.000;0.000;2022-12-18T10:20:33;102158.84;;;0.99;49.93
75086;BME280;63663;0.000;0.000;2022-12-18T10:25:53;102153.16;;;1.02;49.68
75086;BME280;63663;0.000;0.000;2022-12-18T10:28:20;102144.78;;;0.97;50.83
75086;BME280;63663;0.000;0.000;2022-12-18T10:30:46;102124.34;;;0.96;50.83
75086;BME280;63663;0.000;0.000;2022-12-18T10:33:12;102111.59;;;0.98;50.00
75086;BME280;63663;0.000;0.000;2022-12-18T10:35:40;102101.53;;;1.00;50.68
75086;BME280;63663;0.000;0.000;2022-12-18T10:38:07;102094.50;;;0.99;50.35
75086;BME280;63663;0.000;0.000;2022-12-18T10:40:55;102085.47;;;1.00;50.81
75086;BME280;63663;0.000;0.000;2022-12-18T10:43:22;102085.28;;;1.02;50.68
75086;BME280;63663;0.000;0.000;2022-12-18T10:45:58;102080.75;;;1.02;50.90
75086;BME280;63663;0.000;0.000;2022-12-18T10:48:23;102080.94;;;1.01;50.46
75086;BME280;63663;0.000;0.000;2022-12-18T10:50:49;102086.47;;;0.99;51.16
75086;BME280;63663;0.000;0.000;2022-12-18T10:53:23;102084.63;;;1.00;51.10
75086;BME280;63663;0.000;0.000;2022-12-18T10:55:48;102088.13;;;1.00;51.15
75086;BME280;63663;0.000;0.000;2022-12-18T10:58:30;102087.31;;;1.00;51.10
75086;BME280;63663;0.000;0.000;2022-12-18T11:01:10;102081.22;;;1.06;51.14
75086;BME280;63663;0.000;0.000;2022-12-18T11:06:21;102076.88;;;1.05;51.36
75086;BME280;63663;0.000;0.000;2022-12-18T11:08:57;102073.34;;;1.04;50.61
75086;BME280;63663;0.000;0.000;2022-12-18T11:11:23;102061.78;;;1.04;51.48
75086;BME280;63663;0.000;0.000;2022-12-18T11:13:56;102059.94;;;1.04;51.42
75086;BME280;63663;0.000;0.000;2022-12-18T11:16:22;102057.09;;;1.06;51.16
75086;BME280;63663;0.000;0.000;2022-12-18T11:18:48;102042.00;;;1.05;51.64
75086;BME280;63663;0.000;0.000;2022-12-18T11:21:13;102038.69;;;1.03;51.86
75086;BME280;63663;0.000;0.000;2022-12-18T11:23:45;102032.31;;;1.04;51.82
75086;BME280;63663;0.000;0.000;2022-12-18T11:26:11;102022.63;;;1.03;52.07
75086;BME280;63663;0.000;0.000;2022-12-18T11:31:21;102018.88;;;1.12;50.79
75086;BME280;63663;0.000;0.000;2022-12-18T11:36:15;101998.09;;;1.14;50.83
75086;BME280;63663;0.000;0.000;2022-12-18T11:38:41;102007.31;;;1.12;51.74
75086;BME280;63663;0.000;0.000;2022-12-18T11:41:19;102007.66;;;1.08;51.79
75086;BME280;63663;0.000;0.000;2022-12-18T11:43:58;102001.28;;;1.09;51.84
75086;BME280;63663;0.000;0.000;2022-12-18T11:46:27;101988.88;;;1.08;52.10
75086;BME280;63663;0.000;0.000;2022-12-18T11:49:01;101993.06;;;1.11;51.83
75086;BME280;63663;0.000;0.000;2022-12-18T11:51:37;101992.22;;;1.11;51.52
75086;BME280;63663;0.000;0.000;2022-12-18T11:54:13;101992.06;;;1.12;51.37
75086;BME280;63663;0.000;0.000;2022-12-18T11:56:41;101995.59;;;1.13;51.94
75086;BME280;63663;0.000;0.000;2022-12-18T11:59:27;101985.19;;;1.09;52.01
75086;BME280;63663;0.000;0.000;2022-12-18T12:17:42;101958.50;;;1.16;51.76
75086;BME280;63663;0.000;0.000;2022-12-18T12:38:11;101941.72;;;1.22;51.22
75086;BME280;63663;0.000;0.000;2022-12-18T12:40:39;101940.38;;;1.18;52.18
75086;BME280;63663;0.000;0.000;2022-12-18T12:43:15;101950.28;;;1.18;52.02
75086;BME280;63663;0.000;0.000;2022-12-18T12:48:16;101945.22;;;1.23;51.61
75086;BME280;63663;0.000;0.000;2022-12-18T12:50:43;101943.56;;;1.22;51.96
75086;BME280;63663;0.000;0.000;2022-12-18T12:53:09;101941.53;;;1.24;52.15
75086;BME280;63663;0.000;0.000;2022-12-18T12:55:40;101938.31;;;1.28;52.32
75086;BME280;63663;0.000;0.000;2022-12-18T13:00:58;101941.81;;;1.29;52.10
75086;BME280;63663;0.000;0.000;2022-12-18T13:06:04;101937.47;;;1.28;51.54
75086;BME280;63663;0.000;0.000;2022-12-18T13:08:50;101931.47;;;1.26;52.40
75086;BME280;63663;0.000;0.000;2022-12-18T13:11:28;101930.25;;;1.28;52.29
75086;BME280;63663;0.000;0.000;2022-12-18T13:13:55;101926.88;;;1.34;52.36
75086;BME280;63663;0.000;0.000;2022-12-18T13:16:21;101922.34;;;1.35;52.25
75086;BME280;63663;0.000;0.000;2022-12-18T13:19:18;101909.59;;;1.37;52.33
75086;BME280;63663;0.000;0.000;2022-12-18T13:21:35;101907.63;;;1.31;52.34
75086;BME280;63663;0.000;0.000;2022-12-18T13:24:23;101903.75;;;1.33;52.56
75086;BME280;63663;0.000;0.000;2022-12-18T13:26:50;101899.22;;;1.34;52.51
75086;BME280;63663;0.000;0.000;2022-12-18T13:32:00;101891.34;;;1.32;52.26
75086;BME280;63663;0.000;0.000;2022-12-18T13:34:26;101879.09;;;1.38;51.84
75086;BME280;63663;0.000;0.000;2022-12-18T13:36:52;101874.72;;;1.37;51.78
75086;BME280;63663;0.000;0.000;2022-12-18T13:41:47;101852.88;;;1.40;51.50
75086;BME280;63663;0.000;0.000;2022-12-18T13:44:24;101848.72;;;1.37;51.92
75086;BME280;63663;0.000;0.000;2022-12-18T13:46:50;101849.38;;;1.39;51.63
75086;BME280;63663;0.000;0.000;2022-12-18T13:51:54;101827.63;;;1.34;51.66
75086;BME280;63663;0.000;0.000;2022-12-18T13:56:45;101836.06;;;1.46;51.62
75086;BME280;63663;0.000;0.000;2022-12-18T13:59:11;101833.56;;;1.44;52.57
75086;BME280;63663;0.000;0.000;2022-12-18T14:01:41;101839.94;;;1.43;52.02
75086;BME280;63663;0.000;0.000;2022-12-18T14:04:10;101834.06;;;1.48;51.76
75086;BME280;63663;0.000;0.000;2022-12-18T14:06:35;101836.72;;;1.48;51.96
75086;BME280;63663;0.000;0.000;2022-12-18T14:09:01;101836.72;;;1.48;52.12
75086;BME280;63663;0.000;0.000;2022-12-18T14:11:27;101834.69;;;1.50;52.36
75086;BME280;63663;0.000;0.000;2022-12-18T14:13:52;101831.47;;;1.55;51.52
75086;BME280;63663;0.000;0.000;2022-12-18T14:16:17;101837.34;;;1.50;51.81
75086;BME280;63663;0.000;0.000;2022-12-18T14:18:47;101825.44;;;1.53;51.79
75086;BME280;63663;0.000;0.000;2022-12-18T14:21:20;101831.59;;;1.61;51.89
75086;BME280;63663;0.000;0.000;2022-12-18T14:23:46;101833.97;;;1.56;51.71
75086;BME280;63663;0.000;0.000;2022-12-18T14:26:25;101831.53;;;1.47;52.94
75086;BME280;63663;0.000;0.000;2022-12-18T14:28:50;101834.09;;;1.77;52.13
75086;BME280;63663;0.000;0.000;2022-12-18T14:31:22;101842.78;;;2.09;50.61
75086;BME280;63663;0.000;0.000;2022-12-18T14:33:49;101835.44;;;2.47;49.36
75086;BME280;63663;0.000;0.000;2022-12-18T14:36:16;101837.66;;;2.79;49.48
75086;BME280;63663;0.000;0.000;2022-12-18T14:38:41;101830.25;;;3.03;47.83
75086;BME280;63663;0.000;0.000;2022-12-18T14:41:10;101827.78;;;3.22;48.29
75086;BME280;63663;0.000;0.000;2022-12-18T14:43:36;101826.91;;;3.43;47.04
75086;BME280;63663;0.000;0.000;2022-12-18T14:46:02;101822.31;;;3.65;46.79
75086;BME280;63663;0.000;0.000;2022-12-18T14:48:36;101818.91;;;3.84;45.64
75086;BME280;63663;0.000;0.000;2022-12-18T14:51:20;101819.84;;;4.05;45.89